sensor_id;sensor_type;location;lat;lon;timestamp;pressure;altitude;pressure_sealevel;temperature;humidity
44359;BME280;30077;52.474;13.326;2023-02-19T00:02:39;100779.28;;;5.34;100.00
44359;BME280;30077;52.474;13.326;2023-02-19T00:07:39;100787.22;;;5.34;100.00
44359;BME280;30077;52.474;13.326;2023-02-19T00:12:40;100783.66;;;5.36;100.00
44359;BME280;30077;52.474;13.326;2023-02-19T00:17:40;100772.94;;;5.42;100.00
44359;BME280;30077;52.474;13.326;2023-02-19T00:22:40;100782.78;;;5.36;100.00
44359;BME280;30077;52.474;13.326;2023-02-19T00:27:40;100777.38;;;5.42;100.00
44359;BME280;30077;52.474;13.326;2023-02-19T00:32:40;100766.84;;;5.39;100.00
44359;BME280;30077;52.474;13.326;2023-02-19T00:37:40;100758.00;;;5.40;100.00
44359;BME280;30077;52.474;13.326;2023-02-19T00:42:41;100751.66;;;5.47;100.00
44359;BME280;30077;52.474;13.326;2023-02-19T00:47:41;100752.53;;;5.47;100.00
44359;BME280;30077;52.474;13.326;2023-02-19T00:52:41;100762.22;;;5.48;100.00
44359;BME280;30077;52.474;13.326;2023-02-19T00:57:41;100745.47;;;5.48;100.00
44359;BME280;30077;52.474;13.326;2023-02-19T01:02:41;100744.66;;;5.44;100.00
44359;BME280;30077;52.474;13.326;2023-02-19T01:07:42;100740.28;;;5.43;100.00
44359;BME280;30077;52.474;13.326;2023-02-19T01:12:42;100740.25;;;5.45;100.00
44359;BME280;30077;52.474;13.326;2023-02-19T01:17:42;100733.19;;;5.44;100.00
44359;BME280;30077;52.474;13.326;2023-02-19T01:22:43;100711.16;;;5.43;100.00
44359;BME280;30077;52.474;13.326;2023-02-19T01:27:44;100684.94;;;5.34;100.00
44359;BME280;30077;52.474;13.326;2023-02-19T01:32:44;100680.53;;;5.35;100.00
44359;BME280;30077;52.474;13.326;2023-02-19T01:37:44;100697.28;;;5.34;100.00
44359;BME280;30077;52.474;13.326;2023-02-19T01:42:44;100692.91;;;5.32;100.00
44359;BME280;30077;52.474;13.326;2023-02-19T01:47:45;100685.94;;;5.28;100.00
44359;BME280;30077;52.474;13.326;2023-02-19T01:52:48;100668.28;;;5.30;100.00
44359;BME280;30077;52.474;13.326;2023-02-19T01:57:48;100679.34;;;5.09;100.00
44359;BME280;30077;52.474;13.326;2023-02-19T02:02:51;100675.44;;;4.87;100.00
44359;BME280;30077;52.474;13.326;2023-02-19T02:07:53;100655.50;;;4.70;100.00
44359;BME280;30077;52.474;13.326;2023-02-19T02:13:12;100651.28;;;4.62;100.00
44359;BME280;30077;52.474;13.326;2023-02-19T02:18:15;100662.66;;;4.65;100.00
44359;BME280;30077;52.474;13.326;2023-02-19T02:23:21;100666.13;;;4.67;100.00
44359;BME280;30077;52.474;13.326;2023-02-19T02:28:33;100665.28;;;4.67;100.00
44359;BME280;30077;52.474;13.326;2023-02-19T02:33:36;100661.06;;;4.58;100.00
44359;BME280;30077;52.474;13.326;2023-02-19T02:38:39;100655.56;;;4.67;100.00
44359;BME280;30077;52.474;13.326;2023-02-19T02:43:41;100649.34;;;4.70;100.00
44359;BME280;30077;52.474;13.326;2023-02-19T02:48:45;100643.19;;;4.69;100.00
44359;BME280;30077;52.474;13.326;2023-02-19T02:53:54;100651.38;;;4.57;100.00
44359;BME280;30077;52.474;13.326;2023-02-19T02:59:14;100662.19;;;4.45;100.00
44359;BME280;30077;52.474;13.326;2023-02-19T03:04:25;100667.47;;;4.45;100.00
44359;BME280;30077;52.474;13.326;2023-02-19T03:09:28;100661.53;;;4.33;100.00
44359;BME280;30077;52.474;13.326;2023-02-19T03:14:45;100673.28;;;4.17;100.00
44359;BME280;30077;52.474;13.326;2023-02-19T03:20:07;100679.47;;;4.16;100.00
44359;BME280;30077;52.474;13.326;2023-02-19T03:30:34;100693.97;;;3.94;100.00
44359;BME280;30077;52.474;13.326;2023-02-19T03:35:37;100681.03;;;3.78;100.00
44359;BME280;30077;52.474;13.326;2023-02-19T03:40:44;100698.25;;;3.47;100.00
44359;BME280;30077;52.474;13.326;2023-02-19T03:45:52;100692.22;;;3.38;100.00
44359;BME280;30077;52.474;13.326;2023-02-19T03:56:15;100699.72;;;3.06;100.00
44359;BME280;30077;52.474;13.326;2023-02-19T04:01:19;100706.06;;;2.89;100.00
44359;BME280;30077;52.474;13.326;2023-02-19T04:06:24;100711.34;;;2.89;100.00
44359;BME280;30077;52.474;13.326;2023-02-19T04:11:25;100721.19;;;2.75;100.00
44359;BME280;30077;52.474;13.326;2023-02-19T04:16:27;100715.91;;;2.75;100.00
44359;BME280;30077;52.474;13.326;2023-02-19T04:21:27;100724.88;;;2.60;100.00
44359;BME280;30077;52.474;13.326;2023-02-19T04:26:29;100726.50;;;2.71;100.00
44359;BME280;30077;52.474;13.326;2023-02-19T04:31:31;100737.94;;;2.68;100.00
44359;BME280;30077;52.474;13.326;2023-02-19T04:36:34;100733.53;;;2.72;100.00
44359;BME280;30077;52.474;13.326;2023-02-19T04:41:34;100745.97;;;2.57;100.00
44359;BME280;30077;52.474;13.326;2023-02-19T04:46:34;100739.81;;;2.61;100.00
44359;BME280;30077;52.474;13.326;2023-02-19T04:51:34;100743.31;;;2.62;100.00
44359;BME280;30077;52.474;13.326;2023-02-19T04:56:34;100745.03;;;2.63;100.00
44359;BME280;30077;52.474;13.326;2023-02-19T05:01:34;100753.69;;;2.74;100.00
44359;BME280;30077;52.474;13.326;2023-02-19T05:06:35;100753.91;;;2.56;100.00
44359;BME280;30077;52.474;13.326;2023-02-19T05:11:35;100757.47;;;2.52;100.00
44359;BME280;30077;52.474;13.326;2023-02-19T05:16:35;100755.53;;;2.69;100.00
44359;BME280;30077;52.474;13.326;2023-02-19T05:21:35;100756.34;;;2.74;100.00
44359;BME280;30077;52.474;13.326;2023-02-19T05:26:35;100752.16;;;2.55;100.00
44359;BME280;30077;52.474;13.326;2023-02-19T05:31:36;100760.94;;;2.54;100.00
44359;BME280;30077;52.474;13.326;2023-02-19T05:36:36;100761.84;;;2.50;100.00
44359;BME280;30077;52.474;13.326;2023-02-19T05:41:36;100766.19;;;2.54;100.00
44359;BME280;30077;52.474;13.326;2023-02-19T05:46:37;100761.88;;;2.48;100.00
44359;BME280;30077;52.474;13.326;2023-02-19T05:51:38;100770.56;;;2.56;100.00
44359;BME280;30077;52.474;13.326;2023-02-19T05:56:38;100774.06;;;2.58;100.00
44359;BME280;30077;52.474;13.326;2023-02-19T06:01:39;100780.25;;;2.56;100.00
44359;BME280;30077;52.474;13.326;2023-02-19T06:06:39;100778.50;;;2.55;100.00
44359;BME280;30077;52.474;13.326;2023-02-19T06:11:39;100779.34;;;2.57;100.00
44359;BME280;30077;52.474;13.326;2023-02-19T06:16:40;100784.63;;;2.55;100.00
44359;BME280;30077;52.474;13.326;2023-02-19T06:21:40;100784.91;;;2.25;100.00
44359;BME280;30077;52.474;13.326;2023-02-19T06:26:40;100773.44;;;2.36;100.00
44359;BME280;30077;52.474;13.326;2023-02-19T06:31:40;100778.53;;;2.52;100.00
44359;BME280;30077;52.474;13.326;2023-02-19T06:36:40;100804.81;;;2.58;100.00
44359;BME280;30077;52.474;13.326;2023-02-19T06:41:41;100816.13;;;2.64;100.00
44359;BME280;30077;52.474;13.326;2023-02-19T06:46:41;100827.41;;;2.80;100.00
44359;BME280;30077;52.474;13.326;2023-02-19T06:51:41;100846.81;;;2.70;100.00
44359;BME280;30077;52.474;13.326;2023-02-19T06:56:42;100854.59;;;2.82;100.00
44359;BME280;30077;52.474;13.326;2023-02-19T07:01:42;100856.31;;;2.86;100.00
44359;BME280;30077;52.474;13.326;2023-02-19T07:06:43;100872.00;;;2.97;100.00
44359;BME280;30077;52.474;13.326;2023-02-19T07:11:43;100874.50;;;3.11;100.00
44359;BME280;30077;52.474;13.326;2023-02-19T07:16:43;100884.88;;;3.25;100.00
44359;BME280;30077;52.474;13.326;2023-02-19T07:21:46;100890.94;;;3.33;100.00
44359;BME280;30077;52.474;13.326;2023-02-19T07:26:46;100897.81;;;3.46;100.00
44359;BME280;30077;52.474;13.326;2023-02-19T07:31:46;100896.97;;;3.46;100.00
44359;BME280;30077;52.474;13.326;2023-02-19T07:36:46;100905.88;;;3.35;100.00
44359;BME280;30077;52.474;13.326;2023-02-19T07:41:46;100925.09;;;3.44;100.00
44359;BME280;30077;52.474;13.326;2023-02-19T07:46:46;100926.03;;;3.40;100.00
44359;BME280;30077;52.474;13.326;2023-02-19T07:51:47;100931.22;;;3.49;100.00
44359;BME280;30077;52.474;13.326;2023-02-19T07:56:47;100943.59;;;3.42;100.00
44359;BME280;30077;52.474;13.326;2023-02-19T08:01:47;100957.53;;;3.52;100.00
44359;BME280;30077;52.474;13.326;2023-02-19T08:07:06;100963.75;;;3.45;100.00
44359;BME280;30077;52.474;13.326;2023-02-19T08:12:07;100978.56;;;3.58;100.00
44359;BME280;30077;52.474;13.326;2023-02-19T08:17:26;100991.06;;;3.41;100.00
44359;BME280;30077;52.474;13.326;2023-02-19T08:22:26;100995.50;;;3.38;100.00
44359;BME280;30077;52.474;13.326;2023-02-19T08:27:27;101011.94;;;3.62;100.00
44359;BME280;30077;52.474;13.326;2023-02-19T08:32:27;101027.97;;;3.44;100.00
44359;BME280;30077;52.474;13.326;2023-02-19T08:37:27;101035.91;;;3.37;100.00
44359;BME280;30077;52.474;13.326;2023-02-19T08:42:27;101042.66;;;3.69;100.00
44359;BME280;30077;52.474;13.326;2023-02-19T08:47:28;101053.88;;;3.90;100.00
44359;BME280;30077;52.474;13.326;2023-02-19T08:52:28;101063.78;;;3.66;100.00
44359;BME280;30077;52.474;13.326;2023-02-19T08:57:28;101079.22;;;4.03;100.00
44359;BME280;30077;52.474;13.326;2023-02-19T09:02:28;101067.63;;;4.18;100.00
44359;BME280;30077;52.474;13.326;2023-02-19T09:07:29;101089.78;;;4.03;100.00
44359;BME280;30077;52.474;13.326;2023-02-19T09:12:29;101092.63;;;4.57;100.00
44359;BME280;30077;52.474;13.326;2023-02-19T09:17:29;101092.00;;;4.40;100.00
44359;BME280;30077;52.474;13.326;2023-02-19T09:22:29;101095.47;;;4.42;100.00
44359;BME280;30077;52.474;13.326;2023-02-19T09:27:29;101095.25;;;4.58;100.00
44359;BME280;30077;52.474;13.326;2023-02-19T09:32:31;101111.53;;;4.90;100.00
44359;BME280;30077;52.474;13.326;2023-02-19T09:37:31;101120.16;;;5.04;100.00
44359;BME280;30077;52.474;13.326;2023-02-19T09:42:31;101118.50;;;5.51;100.00
44359;BME280;30077;52.474;13.326;2023-02-19T09:47:32;101119.81;;;5.25;100.00
44359;BME280;30077;52.474;13.326;2023-02-19T09:52:44;101139.38;;;5.15;100.00
44359;BME280;30077;52.474;13.326;2023-02-19T09:57:47;101140.38;;;5.62;99.30
44359;BME280;30077;52.474;13.326;2023-02-19T10:03:05;101149.44;;;5.49;97.98
44359;BME280;30077;52.474;13.326;2023-02-19T10:08:11;101165.41;;;5.43;94.50
44359;BME280;30077;52.474;13.326;2023-02-19T10:13:18;101170.06;;;5.25;95.32
44359;BME280;30077;52.474;13.326;2023-02-19T10:18:20;101167.44;;;5.81;92.73
44359;BME280;30077;52.474;13.326;2023-02-19T10:23:21;101192.94;;;5.85;88.52
44359;BME280;30077;52.474;13.326;2023-02-19T10:28:22;101193.09;;;5.77;89.62
44359;BME280;30077;52.474;13.326;2023-02-19T10:33:24;101214.66;;;5.53;89.69
44359;BME280;30077;52.474;13.326;2023-02-19T10:38:29;101210.88;;;5.66;87.32
44359;BME280;30077;52.474;13.326;2023-02-19T10:43:31;101213.31;;;5.82;87.62
44359;BME280;30077;52.474;13.326;2023-02-19T10:48:36;101220.22;;;5.90;85.23
44359;BME280;30077;52.474;13.326;2023-02-19T10:53:42;101225.31;;;6.04;83.35
44359;BME280;30077;52.474;13.326;2023-02-19T10:58:43;101233.50;;;6.40;78.24
44359;BME280;30077;52.474;13.326;2023-02-19T11:03:44;101239.56;;;6.46;78.09
44359;BME280;30077;52.474;13.326;2023-02-19T11:09:00;101250.53;;;6.71;78.16
44359;BME280;30077;52.474;13.326;2023-02-19T11:14:01;101257.38;;;7.27;73.93
44359;BME280;30077;52.474;13.326;2023-02-19T11:19:04;101279.19;;;6.99;75.06
44359;BME280;30077;52.474;13.326;2023-02-19T11:24:04;101278.56;;;6.86;75.67
44359;BME280;30077;52.474;13.326;2023-02-19T11:29:15;101286.97;;;7.08;75.20
44359;BME280;30077;52.474;13.326;2023-02-19T11:39:20;101288.31;;;7.28;74.67
44359;BME280;30077;52.474;13.326;2023-02-19T11:45:08;101298.13;;;7.22;70.76
44359;BME280;30077;52.474;13.326;2023-02-19T11:55:11;101264.06;;;6.59;73.97
44359;BME280;30077;52.474;13.326;2023-02-19T12:31:03;101313.88;;;7.32;68.34
44359;BME280;30077;52.474;13.326;2023-02-19T12:36:11;101331.47;;;6.94;68.32
44359;BME280;30077;52.474;13.326;2023-02-19T12:41:18;101334.47;;;6.75;69.25
44359;BME280;30077;52.474;13.326;2023-02-19T12:46:26;101322.47;;;6.53;67.99
44359;BME280;30077;52.474;13.326;2023-02-19T12:51:38;101330.94;;;6.24;70.16
44359;BME280;30077;52.474;13.326;2023-02-19T12:56:46;101342.53;;;6.17;70.15
44359;BME280;30077;52.474;13.326;2023-02-19T13:02:02;101343.50;;;6.11;70.07
44359;BME280;30077;52.474;13.326;2023-02-19T13:07:05;101352.34;;;6.12;70.98
44359;BME280;30077;52.474;13.326;2023-02-19T13:12:10;101353.44;;;5.97;70.34
44359;BME280;30077;52.474;13.326;2023-02-19T13:17:21;101364.38;;;6.31;69.47
44359;BME280;30077;52.474;13.326;2023-02-19T13:22:34;101365.09;;;6.41;68.05
44359;BME280;30077;52.474;13.326;2023-02-19T13:28:03;101355.53;;;6.82;66.67
44359;BME280;30077;52.474;13.326;2023-02-19T13:38:24;101372.03;;;6.49;67.55
44359;BME280;30077;52.474;13.326;2023-02-19T13:43:26;101366.50;;;6.63;66.70
44359;BME280;30077;52.474;13.326;2023-02-19T13:48:29;101372.94;;;6.98;64.39
44359;BME280;30077;52.474;13.326;2023-02-19T13:58:51;101379.31;;;6.37;66.81
44359;BME280;30077;52.474;13.326;2023-02-19T14:04:06;101378.22;;;6.48;67.11
44359;BME280;30077;52.474;13.326;2023-02-19T14:09:38;101397.75;;;6.44;67.26
44359;BME280;30077;52.474;13.326;2023-02-19T14:19:47;101412.47;;;6.62;63.58
44359;BME280;30077;52.474;13.326;2023-02-19T14:24:47;101413.47;;;6.55;63.94
44359;BME280;30077;52.474;13.326;2023-02-19T14:29:48;101410.44;;;6.22;65.69
44359;BME280;30077;52.474;13.326;2023-02-19T14:34:48;101409.91;;;5.99;66.52
44359;BME280;30077;52.474;13.326;2023-02-19T14:39:48;101410.84;;;5.96;67.12
44359;BME280;30077;52.474;13.326;2023-02-19T14:44:51;101417.03;;;5.94;66.51
44359;BME280;30077;52.474;13.326;2023-02-19T14:50:00;101425.88;;;5.96;66.10
44359;BME280;30077;52.474;13.326;2023-02-19T15:05:23;101441.22;;;6.33;65.41
44359;BME280;30077;52.474;13.326;2023-02-19T15:10:25;101436.66;;;6.41;64.87
44359;BME280;30077;52.474;13.326;2023-02-19T15:15:27;101450.56;;;5.96;62.42
44359;BME280;30077;52.474;13.326;2023-02-19T15:20:29;101428.84;;;5.68;62.34
44359;BME280;30077;52.474;13.326;2023-02-19T15:25:32;101446.50;;;5.68;63.88
44359;BME280;30077;52.474;13.326;2023-02-19T15:30:33;101454.44;;;5.66;63.47
44359;BME280;30077;52.474;13.326;2023-02-19T15:35:33;101437.03;;;5.47;64.30
44359;BME280;30077;52.474;13.326;2023-02-19T15:40:33;101454.72;;;5.45;64.95
44359;BME280;30077;52.474;13.326;2023-02-19T15:45:37;101453.03;;;5.38;65.60
44359;BME280;30077;52.474;13.326;2023-02-19T15:50:40;101458.34;;;5.35;66.07
44359;BME280;30077;52.474;13.326;2023-02-19T16:00:57;101478.84;;;5.13;64.99
44359;BME280;30077;52.474;13.326;2023-02-19T16:11:03;101496.53;;;5.06;66.67
44359;BME280;30077;52.474;13.326;2023-02-19T16:21:14;101508.09;;;4.96;67.84
44359;BME280;30077;52.474;13.326;2023-02-19T16:26:15;101516.97;;;4.89;68.84
44359;BME280;30077;52.474;13.326;2023-02-19T16:31:16;101529.38;;;4.77;69.50
44359;BME280;30077;52.474;13.326;2023-02-19T16:42:17;101530.38;;;4.61;70.76
44359;BME280;30077;52.474;13.326;2023-02-19T16:46:56;101534.84;;;4.53;71.57
44359;BME280;30077;52.474;13.326;2023-02-19T16:51:57;101548.97;;;4.46;72.59
44359;BME280;30077;52.474;13.326;2023-02-19T16:56:58;101543.75;;;4.37;73.88
44359;BME280;30077;52.474;13.326;2023-02-19T17:01:58;101551.72;;;4.26;75.00
44359;BME280;30077;52.474;13.326;2023-02-19T17:06:58;101557.91;;;4.17;76.48
44359;BME280;30077;52.474;13.326;2023-02-19T17:11:59;101554.44;;;4.09;76.96
44359;BME280;30077;52.474;13.326;2023-02-19T17:16:59;101557.09;;;4.07;77.65
44359;BME280;30077;52.474;13.326;2023-02-19T17:22:00;101547.44;;;3.97;79.17
44359;BME280;30077;52.474;13.326;2023-02-19T17:27:00;101555.38;;;3.88;80.00
44359;BME280;30077;52.474;13.326;2023-02-19T17:32:00;101574.75;;;3.81;80.84
44359;BME280;30077;52.474;13.326;2023-02-19T17:37:01;101565.13;;;3.75;81.66
44359;BME280;30077;52.474;13.326;2023-02-19T17:42:02;101572.13;;;3.76;81.86
44359;BME280;30077;52.474;13.326;2023-02-19T17:47:04;101575.66;;;3.75;82.37
44359;BME280;30077;52.474;13.326;2023-02-19T17:52:04;101568.66;;;3.71;82.75
44359;BME280;30077;52.474;13.326;2023-02-19T17:57:04;101582.69;;;3.70;83.50
44359;BME280;30077;52.474;13.326;2023-02-19T18:02:05;101588.00;;;3.67;84.08
44359;BME280;30077;52.474;13.326;2023-02-19T18:07:05;101582.75;;;3.64;84.67
44359;BME280;30077;52.474;13.326;2023-02-19T18:12:05;101594.16;;;3.63;85.33
44359;BME280;30077;52.474;13.326;2023-02-19T18:17:06;101599.47;;;3.57;86.06
44359;BME280;30077;52.474;13.326;2023-02-19T18:22:06;101606.50;;;3.53;86.58
44359;BME280;30077;52.474;13.326;2023-02-19T18:27:06;101604.75;;;3.46;87.67
44359;BME280;30077;52.474;13.326;2023-02-19T18:32:06;101619.69;;;3.44;88.01
44359;BME280;30077;52.474;13.326;2023-02-19T18:37:07;101602.97;;;3.41;88.52
44359;BME280;30077;52.474;13.326;2023-02-19T18:42:08;101612.66;;;3.38;88.88
44359;BME280;30077;52.474;13.326;2023-02-19T18:47:08;101616.16;;;3.37;89.57
44359;BME280;30077;52.474;13.326;2023-02-19T18:52:10;101614.41;;;3.36;89.74
44359;BME280;30077;52.474;13.326;2023-02-19T18:57:11;101624.09;;;3.36;89.90
44359;BME280;30077;52.474;13.326;2023-02-19T19:02:11;101624.94;;;3.33;90.89
44359;BME280;30077;52.474;13.326;2023-02-19T19:07:12;101619.69;;;3.27;91.22
44359;BME280;30077;52.474;13.326;2023-02-19T19:12:13;101612.66;;;3.29;91.93
44359;BME280;30077;52.474;13.326;2023-02-19T19:17:13;101612.66;;;3.26;91.68
44359;BME280;30077;52.474;13.326;2023-02-19T19:22:14;101619.69;;;3.21;92.00
44359;BME280;30077;52.474;13.326;2023-02-19T19:27:17;101617.91;;;3.19;92.78
44359;BME280;30077;52.474;13.326;2023-02-19T19:32:17;101612.66;;;3.17;93.27
44359;BME280;30077;52.474;13.326;2023-02-19T19:37:17;101612.66;;;3.14;93.58
44359;BME280;30077;52.474;13.326;2023-02-19T19:42:17;101602.97;;;3.14;93.51
44359;BME280;30077;52.474;13.326;2023-02-19T19:47:18;101613.56;;;3.16;93.70
44359;BME280;30077;52.474;13.326;2023-02-19T19:52:18;101617.94;;;3.14;94.06
44359;BME280;30077;52.474;13.326;2023-02-19T19:57:18;101602.97;;;3.08;94.47
44359;BME280;30077;52.474;13.326;2023-02-19T20:02:19;101615.28;;;3.03;95.20
44359;BME280;30077;52.474;13.326;2023-02-19T20:07:19;101613.53;;;2.95;96.07
44359;BME280;30077;52.474;13.326;2023-02-19T20:12:19;101602.06;;;2.86;97.18
44359;BME280;30077;52.474;13.326;2023-02-19T20:17:19;101610.00;;;2.83;97.53
44359;BME280;30077;52.474;13.326;2023-02-19T20:22:20;101622.28;;;2.77;98.58
44359;BME280;30077;52.474;13.326;2023-02-19T20:27:21;101627.50;;;2.72;98.98
44359;BME280;30077;52.474;13.326;2023-02-19T20:32:21;101626.66;;;2.70;98.89
44359;BME280;30077;52.474;13.326;2023-02-19T20:37:21;101631.03;;;2.70;99.99
44359;BME280;30077;52.474;13.326;2023-02-19T20:42:23;101628.38;;;2.67;99.88
44359;BME280;30077;52.474;13.326;2023-02-19T20:47:23;101634.53;;;2.67;100.00
44359;BME280;30077;52.474;13.326;2023-02-19T20:52:23;101638.06;;;2.69;100.00
44359;BME280;30077;52.474;13.326;2023-02-19T20:57:23;101635.44;;;2.69;100.00
44359;BME280;30077;52.474;13.326;2023-02-19T21:02:24;101637.16;;;2.67;100.00
44359;BME280;30077;52.474;13.326;2023-02-19T21:07:29;101638.91;;;2.62;100.00
44359;BME280;30077;52.474;13.326;2023-02-19T21:12:29;101634.53;;;2.58;100.00
44359;BME280;30077;52.474;13.326;2023-02-19T21:17:31;101625.72;;;2.57;100.00
44359;BME280;30077;52.474;13.326;2023-02-19T21:22:31;101624.81;;;2.54;100.00
44359;BME280;30077;52.474;13.326;2023-02-19T21:27:31;101615.16;;;2.48;100.00
44359;BME280;30077;52.474;13.326;2023-02-19T21:32:32;101609.88;;;2.47;100.00
44359;BME280;30077;52.474;13.326;2023-02-19T21:37:32;101611.63;;;2.46;100.00
44359;BME280;30077;52.474;13.326;2023-02-19T21:42:32;101594.97;;;2.50;100.00
44359;BME280;30077;52.474;13.326;2023-02-19T21:47:33;101588.84;;;2.59;100.00
44359;BME280;30077;52.474;13.326;2023-02-19T21:52:33;101584.50;;;2.70;100.00
44359;BME280;30077;52.474;13.326;2023-02-19T21:57:33;101589.75;;;2.79;100.00
44359;BME280;30077;52.474;13.326;2023-02-19T22:02:33;101573.94;;;2.82;100.00
44359;BME280;30077;52.474;13.326;2023-02-19T22:07:34;101565.19;;;2.89;100.00
44359;BME280;30077;52.474;13.326;2023-02-19T22:12:34;101553.75;;;2.94;100.00
44359;BME280;30077;52.474;13.326;2023-02-19T22:17:34;101551.13;;;2.87;100.00
44359;BME280;30077;52.474;13.326;2023-02-19T22:22:34;101536.19;;;2.77;100.00
44359;BME280;30077;52.474;13.326;2023-02-19T22:27:35;101535.31;;;2.66;100.00
44359;BME280;30077;52.474;13.326;2023-02-19T22:32:35;101531.78;;;2.58;100.00
44359;BME280;30077;52.474;13.326;2023-02-19T22:37:35;101537.03;;;2.55;100.00
44359;BME280;30077;52.474;13.326;2023-02-19T22:42:36;101541.41;;;2.47;100.00
44359;BME280;30077;52.474;13.326;2023-02-19T22:47:39;101554.59;;;2.44;100.00
44359;BME280;30077;52.474;13.326;2023-02-19T22:52:40;101559.81;;;2.37;100.00
44359;BME280;30077;52.474;13.326;2023-02-19T22:57:41;101572.97;;;2.34;100.00
44359;BME280;30077;52.474;13.326;2023-02-19T23:02:41;101567.72;;;2.33;100.00
44359;BME280;30077;52.474;13.326;2023-02-19T23:07:42;101565.94;;;2.29;100.00
44359;BME280;30077;52.474;13.326;2023-02-19T23:12:42;101571.19;;;2.24;100.00
44359;BME280;30077;52.474;13.326;2023-02-19T23:17:42;101566.75;;;2.17;100.00
44359;BME280;30077;52.474;13.326;2023-02-19T23:22:43;101564.13;;;2.12;100.00
44359;BME280;30077;52.474;13.326;2023-02-19T23:27:43;101567.59;;;2.05;100.00
44359;BME280;30077;52.474;13.326;2023-02-19T23:32:43;101551.78;;;2.02;100.00
44359;BME280;30077;52.474;13.326;2023-02-19T23:37:43;101546.53;;;2.01;100.00
44359;BME280;30077;52.474;13.326;2023-02-19T23:42:43;101539.50;;;1.97;100.00
44359;BME280;30077;52.474;13.326;2023-02-19T23:47:44;101529.84;;;1.97;100.00
44359;BME280;30077;52.474;13.326;2023-02-19T23:52:44;101528.09;;;2.01;100.00
44359;BME280;30077;52.474;13.326;2023-02-19T23:57:44;101527.19;;;1.96;100.00
